KSMF data

Available data for KSMF from the past 2 hours
SACRAMENTO/METRO, CA
Metar
KSMF 181353Z 15003KT 10SM SCT120 07/07 A3027 RMK AO2 SLP250 T00720067

13:53 UTC

Wind: 150° 3kt

Visibility: 10 SM

Sky: SCT 12000 ft

Temp: 7 deg C / 44.6 deg F

Dewpoint: 7 deg C / 44.6 deg F

Pressure: 30.27 inHg

TAF
KSMF 181143Z 1812/1912 15003KT P6SM BKN100 FM181300 15003KT 4SM BR BKN100 FM181400 VRB03KT 2SM BR OVC007 FM181900 17005KT 5SM BR BKN025 FM182000 18006KT P6SM BKN100